createdAt,value
2023-04-23T00:00:54.991Z,25.50
2023-04-23T00:04:08.689Z,25.40
2023-04-23T00:07:22.237Z,25.40
2023-04-23T00:10:37.040Z,25.40
2023-04-23T00:13:50.426Z,25.30
2023-04-23T00:17:05.599Z,25.30
2023-04-23T00:20:20.036Z,25.30
2023-04-23T00:23:31.652Z,25.30
2023-04-23T00:26:45.032Z,25.30
2023-04-23T00:29:55.560Z,25.20
2023-04-23T00:33:05.544Z,25.20
2023-04-23T00:36:17.939Z,25.20
2023-04-23T00:39:30.206Z,25.20
2023-04-23T00:42:46.944Z,25.10
2023-04-23T00:49:18.762Z,25.10
2023-04-23T00:52:31.634Z,25.10
2023-04-23T00:55:43.720Z,25.10
2023-04-23T00:58:57.971Z,25.10
2023-04-23T01:02:05.872Z,25.10
2023-04-23T01:05:19.601Z,25.10
2023-04-23T01:08:29.979Z,25.10
2023-04-23T01:11:38.200Z,25.00
2023-04-23T01:14:50.263Z,24.90
2023-04-23T01:18:00.752Z,25.00
2023-04-23T01:21:11.087Z,25.00
2023-04-23T01:24:20.716Z,25.00
2023-04-23T01:27:31.207Z,24.90
2023-04-23T01:30:41.391Z,24.90
2023-04-23T01:33:53.094Z,24.90
2023-04-23T01:37:05.035Z,24.90
2023-04-23T01:40:18.407Z,24.90
2023-04-23T01:43:32.127Z,24.80
2023-04-23T01:46:43.344Z,24.80
2023-04-23T01:49:53.705Z,24.90
2023-04-23T01:53:07.120Z,24.90
2023-04-23T01:56:20.105Z,24.80
2023-04-23T01:59:31.096Z,24.70
2023-04-23T02:02:42.812Z,24.80
2023-04-23T02:05:52.507Z,24.80
2023-04-23T02:09:03.453Z,24.80
2023-04-23T02:12:14.455Z,24.70
2023-04-23T02:15:26.050Z,24.70
2023-04-23T02:18:39.050Z,24.70
2023-04-23T02:21:49.678Z,24.70
2023-04-23T02:24:59.298Z,24.70
2023-04-23T02:28:12.024Z,24.60
2023-04-23T02:31:22.298Z,24.60
2023-04-23T02:34:35.834Z,24.70
2023-04-23T02:37:49.095Z,24.70
2023-04-23T02:41:00.934Z,24.60
2023-04-23T02:44:11.574Z,24.50
2023-04-23T02:47:22.131Z,24.60
2023-04-23T02:50:34.592Z,24.60
2023-04-23T02:53:45.767Z,24.60
2023-04-23T02:56:55.010Z,24.50
2023-04-23T03:00:08.137Z,24.50
2023-04-23T03:03:17.018Z,24.50
2023-04-23T03:06:28.774Z,24.50
2023-04-23T03:09:42.343Z,24.50
2023-04-23T03:12:51.648Z,24.40
2023-04-23T03:16:00.297Z,24.40
2023-04-23T03:19:09.557Z,24.40
2023-04-23T03:22:20.339Z,24.40
2023-04-23T03:25:32.511Z,24.30
2023-04-23T03:28:45.413Z,24.30
2023-04-23T03:31:57.159Z,24.30
2023-04-23T03:35:11.324Z,24.40
2023-04-23T03:38:22.230Z,24.40
2023-04-23T03:41:33.941Z,24.30
2023-04-23T03:44:45.161Z,24.30
2023-04-23T03:47:54.807Z,24.30
2023-04-23T03:51:06.777Z,24.30
2023-04-23T03:54:17.382Z,24.30
2023-04-23T03:57:28.156Z,24.20
2023-04-23T04:00:39.547Z,24.10
2023-04-23T04:03:50.028Z,24.20
2023-04-23T04:07:02.061Z,24.20
2023-04-23T04:10:16.233Z,24.10
2023-04-23T04:13:29.053Z,24.10
2023-04-23T04:16:39.697Z,24.10
2023-04-23T04:19:49.220Z,24.10
2023-04-23T04:23:02.872Z,24.20
2023-04-23T04:26:17.058Z,24.10
2023-04-23T04:29:26.580Z,24.10
2023-04-23T04:32:37.970Z,24.00
2023-04-23T04:35:51.213Z,24.10
2023-04-23T04:39:02.954Z,24.10
2023-04-23T04:42:13.707Z,24.00
2023-04-23T04:45:24.166Z,24.00
2023-04-23T04:48:34.301Z,24.00
2023-04-23T04:51:46.449Z,24.00
2023-04-23T04:54:54.109Z,24.00
2023-04-23T04:58:06.135Z,23.90
2023-04-23T05:01:18.686Z,23.90
2023-04-23T05:04:32.064Z,23.90
2023-04-23T05:07:42.082Z,23.90
2023-04-23T05:10:51.699Z,23.90
2023-04-23T05:14:03.028Z,23.80
2023-04-23T05:17:16.823Z,23.80
2023-04-23T05:20:27.830Z,23.80
2023-04-23T05:23:40.051Z,23.90
2023-04-23T05:26:55.462Z,23.80
2023-04-23T05:30:06.435Z,23.80
2023-04-23T05:33:17.853Z,23.80
2023-04-23T05:36:29.033Z,23.80
2023-04-23T05:39:41.823Z,23.80
2023-04-23T05:42:49.702Z,23.70
2023-04-23T05:45:59.663Z,23.70
2023-04-23T05:49:14.030Z,23.70
2023-04-23T05:52:24.944Z,23.80
2023-04-23T05:55:37.081Z,23.70
2023-04-23T05:58:47.698Z,23.60
2023-04-23T06:01:59.908Z,23.60
2023-04-23T06:05:14.427Z,23.70
2023-04-23T06:08:28.085Z,23.60
2023-04-23T06:11:38.838Z,23.60
2023-04-23T06:14:51.219Z,23.60
2023-04-23T06:18:02.945Z,23.60
2023-04-23T06:21:14.898Z,23.60
2023-04-23T06:24:26.292Z,23.60
2023-04-23T06:27:38.093Z,23.50
2023-04-23T06:30:45.589Z,23.50
2023-04-23T06:33:58.671Z,23.50
2023-04-23T06:37:09.306Z,23.50
2023-04-23T06:40:22.913Z,23.40
2023-04-23T06:43:34.342Z,23.40
2023-04-23T06:46:45.944Z,23.40
2023-04-23T06:49:56.522Z,23.40
2023-04-23T06:53:09.534Z,23.40
2023-04-23T06:56:22.187Z,23.40
2023-04-23T06:59:35.132Z,23.40
2023-04-23T07:02:47.144Z,23.40
2023-04-23T07:05:58.423Z,23.40
2023-04-23T07:09:08.839Z,23.40
2023-04-23T07:12:19.024Z,23.30
2023-04-23T07:15:28.306Z,23.30
2023-04-23T07:18:38.878Z,23.30
2023-04-23T07:21:51.104Z,23.30
2023-04-23T07:25:04.450Z,23.20
2023-04-23T07:28:10.868Z,23.20
2023-04-23T07:31:21.670Z,23.20
2023-04-23T07:34:36.130Z,23.20
2023-04-23T07:37:45.843Z,23.30
2023-04-23T07:40:57.591Z,23.20
2023-04-23T07:44:07.773Z,23.20
2023-04-23T07:47:16.545Z,23.10
2023-04-23T07:50:29.026Z,23.20
2023-04-23T07:53:43.446Z,23.20
2023-04-23T07:56:54.989Z,23.10
2023-04-23T08:00:05.056Z,23.10
2023-04-23T08:03:13.809Z,23.00
2023-04-23T08:06:24.531Z,23.00
2023-04-23T08:09:38.039Z,23.00
2023-04-23T08:12:50.520Z,23.00
2023-04-23T08:16:01.081Z,23.00
2023-04-23T08:19:11.451Z,23.00
2023-04-23T08:22:22.644Z,23.00
2023-04-23T08:25:32.511Z,23.00
2023-04-23T08:28:43.959Z,23.00
2023-04-23T08:31:55.295Z,23.00
2023-04-23T08:35:10.476Z,23.00
2023-04-23T08:38:20.944Z,23.00
2023-04-23T08:41:30.934Z,23.00
2023-04-23T08:44:42.205Z,22.90
2023-04-23T08:47:55.474Z,22.90
2023-04-23T08:51:04.767Z,22.90
2023-04-23T08:54:16.861Z,22.90
2023-04-23T08:57:32.085Z,22.90
2023-04-23T09:00:43.395Z,22.80
2023-04-23T09:03:56.950Z,22.90
2023-04-23T09:07:09.667Z,22.90
2023-04-23T09:10:20.647Z,22.90
2023-04-23T09:13:32.734Z,22.80
2023-04-23T09:16:46.405Z,22.80
2023-04-23T09:19:57.378Z,22.80
2023-04-23T09:23:12.562Z,22.80
2023-04-23T09:26:25.755Z,22.80
2023-04-23T09:29:37.078Z,22.80
2023-04-23T09:32:48.661Z,22.70
2023-04-23T09:36:01.618Z,22.70
2023-04-23T09:39:15.262Z,22.70
2023-04-23T09:42:24.163Z,22.70
2023-04-23T09:45:33.511Z,22.70
2023-04-23T09:48:49.470Z,22.70
2023-04-23T09:52:00.429Z,22.70
2023-04-23T09:55:13.995Z,22.70
2023-04-23T09:58:26.424Z,22.60
2023-04-23T10:01:37.873Z,22.60
2023-04-23T10:04:50.426Z,22.70
2023-04-23T10:07:59.862Z,22.60
2023-04-23T10:11:20.411Z,22.60
2023-04-23T10:14:23.298Z,22.60
2023-04-23T10:17:37.482Z,22.60
2023-04-23T10:20:49.853Z,22.60
2023-04-23T10:24:02.374Z,22.50
2023-04-23T10:27:30.659Z,22.50
2023-04-23T10:30:30.640Z,22.50
2023-04-23T10:33:46.011Z,22.50
2023-04-23T10:36:49.814Z,22.50
2023-04-23T10:40:01.402Z,22.50
2023-04-23T10:43:09.656Z,22.60
2023-04-23T10:46:39.298Z,22.70
2023-04-23T10:49:48.768Z,22.80
2023-04-23T10:52:59.203Z,23.00
2023-04-23T10:56:14.296Z,23.10
2023-04-23T10:59:29.292Z,23.20
2023-04-23T11:02:50.587Z,23.30
2023-04-23T11:09:42.053Z,23.30
2023-04-23T11:12:53.798Z,23.20
2023-04-23T11:16:24.330Z,23.10
2023-04-23T11:19:36.976Z,23.10
2023-04-23T11:22:53.269Z,23.00
2023-04-23T11:26:05.436Z,23.10
2023-04-23T11:29:18.468Z,23.20
2023-04-23T11:32:31.556Z,23.40
2023-04-23T11:35:41.042Z,23.60
2023-04-23T11:38:50.523Z,23.70
2023-04-23T11:42:01.631Z,23.70
2023-04-23T11:45:16.484Z,23.70
2023-04-23T11:48:29.413Z,23.60
2023-04-23T11:51:42.119Z,23.60
2023-04-23T11:54:52.529Z,23.60
2023-04-23T11:58:05.529Z,23.70
2023-04-23T12:01:17.423Z,23.70
2023-04-23T12:04:25.997Z,23.70
2023-04-23T12:07:40.834Z,23.70
2023-04-23T12:10:53.877Z,23.70
2023-04-23T12:14:07.869Z,23.70
2023-04-23T12:17:16.933Z,23.70
2023-04-23T12:20:26.451Z,23.70
2023-04-23T12:23:39.462Z,23.70
2023-04-23T12:26:50.012Z,23.70
2023-04-23T12:30:09.490Z,23.70
2023-04-23T12:33:19.385Z,23.60
2023-04-23T12:36:33.474Z,23.70
2023-04-23T12:39:47.549Z,23.90
2023-04-23T12:42:58.843Z,24.10
2023-04-23T12:46:09.586Z,24.30
2023-04-23T12:49:19.447Z,24.50
2023-04-23T12:52:30.315Z,24.70
2023-04-23T12:55:40.131Z,24.90
2023-04-23T12:58:49.421Z,25.10
2023-04-23T13:02:03.285Z,25.30
2023-04-23T13:05:19.451Z,25.50
2023-04-23T13:08:33.660Z,25.60
2023-04-23T13:11:44.125Z,25.80
2023-04-23T13:14:54.098Z,26.00
2023-04-23T13:18:08.246Z,26.10
2023-04-23T13:21:20.359Z,26.20
2023-04-23T13:24:30.434Z,26.10
2023-04-23T13:27:41.463Z,26.10
2023-04-23T13:30:54.488Z,26.10
2023-04-23T13:34:05.335Z,26.20
2023-04-23T13:37:18.466Z,26.30
2023-04-23T13:40:30.091Z,26.40
2023-04-23T13:43:42.914Z,26.50
2023-04-23T13:46:54.102Z,26.50
2023-04-23T13:50:08.029Z,26.40
2023-04-23T13:53:19.612Z,26.40
2023-04-23T13:56:35.080Z,26.50
2023-04-23T13:59:47.929Z,26.40
2023-04-23T14:03:01.561Z,26.30
2023-04-23T14:06:14.604Z,26.10
2023-04-23T14:09:25.721Z,26.10
2023-04-23T14:12:39.820Z,26.10
2023-04-23T14:15:52.398Z,26.10
2023-04-23T14:19:04.943Z,26.10
2023-04-23T14:22:16.772Z,26.10
2023-04-23T14:25:33.396Z,26.20
2023-04-23T14:28:47.383Z,26.40
2023-04-23T14:31:59.873Z,26.50
2023-04-23T14:35:17.495Z,26.50
2023-04-23T14:38:30.289Z,26.50
2023-04-23T14:41:45.730Z,26.50
2023-04-23T14:44:57.914Z,26.40
2023-04-23T14:48:09.399Z,26.20
2023-04-23T14:51:20.545Z,26.20
2023-04-23T14:54:30.444Z,26.20
2023-04-23T14:57:39.863Z,26.30
2023-04-23T15:00:51.682Z,26.30
2023-04-23T15:04:06.508Z,26.20
2023-04-23T15:07:17.871Z,26.30
2023-04-23T15:10:29.551Z,26.20
2023-04-23T15:13:48.571Z,26.20
2023-04-23T15:17:03.333Z,26.10
2023-04-23T15:20:18.645Z,26.00
2023-04-23T15:23:29.060Z,25.90
2023-04-23T15:26:39.049Z,26.00
2023-04-23T15:29:49.301Z,26.20
2023-04-23T15:32:57.995Z,26.40
2023-04-23T15:36:09.810Z,26.50
2023-04-23T15:39:22.351Z,26.60
2023-04-23T15:42:31.014Z,26.60
2023-04-23T15:45:42.023Z,26.40
2023-04-23T15:48:49.700Z,26.30
2023-04-23T15:52:00.242Z,26.20
2023-04-23T15:55:11.681Z,26.20
2023-04-23T15:58:22.101Z,26.10
2023-04-23T16:01:37.765Z,26.10
2023-04-23T16:04:49.505Z,26.00
2023-04-23T16:07:58.871Z,25.90
2023-04-23T16:11:11.440Z,25.90
2023-04-23T16:14:27.073Z,25.90
2023-04-23T16:17:39.298Z,25.80
2023-04-23T16:20:54.241Z,25.80
2023-04-23T16:24:09.258Z,25.70
2023-04-23T16:27:20.871Z,25.70
2023-04-23T16:30:33.451Z,25.70
2023-04-23T16:33:44.645Z,25.60
2023-04-23T16:36:57.469Z,25.60
2023-04-23T16:40:11.983Z,25.70
2023-04-23T16:43:23.435Z,25.80
2023-04-23T16:46:34.918Z,25.90
2023-04-23T16:49:45.923Z,26.00
2023-04-23T16:53:00.146Z,26.00
2023-04-23T16:56:09.892Z,25.90
2023-04-23T16:59:21.191Z,25.80
2023-04-23T17:02:32.317Z,25.70
2023-04-23T17:05:42.451Z,25.70
2023-04-23T17:08:54.727Z,25.60
2023-04-23T17:12:05.926Z,25.50
2023-04-23T17:15:18.162Z,25.50
2023-04-23T17:18:31.657Z,25.40
2023-04-23T17:21:42.618Z,25.40
2023-04-23T17:24:53.718Z,25.60
2023-04-23T17:28:03.623Z,25.70
2023-04-23T17:31:14.790Z,25.90
2023-04-23T17:34:26.520Z,25.80
2023-04-23T17:37:39.804Z,25.70
2023-04-23T17:40:51.827Z,25.60
2023-04-23T17:44:03.723Z,25.50
2023-04-23T17:47:15.884Z,25.30
2023-04-23T17:50:26.414Z,25.30
2023-04-23T17:53:38.696Z,25.50
2023-04-23T17:56:47.484Z,25.70
2023-04-23T18:00:03.034Z,25.70
2023-04-23T18:03:17.443Z,25.70
2023-04-23T18:06:29.834Z,25.60
2023-04-23T18:09:41.466Z,25.50
2023-04-23T18:12:53.576Z,25.40
2023-04-23T18:16:05.858Z,25.30
2023-04-23T18:19:15.698Z,25.30
2023-04-23T18:22:26.882Z,25.20
2023-04-23T18:25:41.087Z,25.10
2023-04-23T18:28:53.405Z,25.20
2023-04-23T18:32:05.547Z,25.40
2023-04-23T18:35:18.046Z,25.50
2023-04-23T18:38:33.445Z,25.70
2023-04-23T18:41:45.137Z,25.70
2023-04-23T18:44:59.601Z,25.70
2023-04-23T18:48:18.930Z,25.60
2023-04-23T18:51:36.972Z,25.50
2023-04-23T18:54:48.269Z,25.50
2023-04-23T18:58:01.276Z,25.40
2023-04-23T19:01:12.977Z,25.30
2023-04-23T19:04:28.113Z,25.20
2023-04-23T19:07:39.135Z,25.10
2023-04-23T19:10:50.615Z,25.10
2023-04-23T19:14:02.605Z,25.00
2023-04-23T19:17:15.406Z,25.00
2023-04-23T19:20:27.755Z,25.10
2023-04-23T19:23:38.803Z,25.30
2023-04-23T19:26:51.507Z,25.40
2023-04-23T19:30:03.290Z,25.60
2023-04-23T19:33:16.321Z,25.50
2023-04-23T19:36:29.210Z,25.40
2023-04-23T19:39:41.738Z,25.30
2023-04-23T19:42:53.171Z,25.30
2023-04-23T19:46:04.228Z,25.20
2023-04-23T19:49:14.080Z,25.10
2023-04-23T19:52:24.468Z,25.10
2023-04-23T19:55:36.672Z,25.30
2023-04-23T19:58:45.799Z,25.40
2023-04-23T20:01:57.934Z,25.50
2023-04-23T20:05:09.580Z,25.60
2023-04-23T20:08:19.540Z,25.70
2023-04-23T20:11:30.783Z,25.60
2023-04-23T20:14:41.459Z,25.50
2023-04-23T20:17:53.865Z,25.40
2023-04-23T20:21:07.458Z,25.30
2023-04-23T20:24:18.788Z,25.30
2023-04-23T20:27:28.887Z,25.20
2023-04-23T20:30:40.899Z,25.20
2023-04-23T20:33:52.516Z,25.10
2023-04-23T20:37:05.275Z,25.10
2023-04-23T20:40:16.008Z,25.10
2023-04-23T20:43:28.164Z,25.30
2023-04-23T20:46:39.403Z,25.40
2023-04-23T20:49:51.885Z,25.50
2023-04-23T20:53:06.392Z,25.50
2023-04-23T20:56:17.084Z,25.50
2023-04-23T20:59:29.325Z,25.40
2023-04-23T21:02:43.135Z,25.30
2023-04-23T21:05:56.134Z,25.20
2023-04-23T21:09:08.855Z,25.20
2023-04-23T21:12:19.929Z,25.10
2023-04-23T21:15:35.955Z,25.10
2023-04-23T21:18:45.960Z,25.00
2023-04-23T21:21:57.327Z,25.00
2023-04-23T21:25:07.996Z,25.10
2023-04-23T21:28:17.801Z,25.20
2023-04-23T21:31:35.756Z,25.40
2023-04-23T21:34:46.119Z,25.50
2023-04-23T21:37:59.239Z,25.50
2023-04-23T21:41:11.202Z,25.40
2023-04-23T21:44:25.084Z,25.30
2023-04-23T21:47:40.164Z,25.20
2023-04-23T21:50:50.529Z,25.20
2023-04-23T21:54:04.655Z,25.20
2023-04-23T21:57:16.510Z,25.10
2023-04-23T22:00:26.860Z,25.00
2023-04-23T22:03:37.713Z,25.10
2023-04-23T22:06:53.267Z,25.30
2023-04-23T22:10:06.284Z,25.40
2023-04-23T22:13:15.650Z,25.50
2023-04-23T22:16:29.674Z,25.60
2023-04-23T22:19:38.212Z,25.60
2023-04-23T22:22:50.225Z,25.50
2023-04-23T22:26:01.509Z,25.40
2023-04-23T22:29:11.929Z,25.30
2023-04-23T22:32:22.265Z,25.20
2023-04-23T22:35:32.933Z,25.10
2023-04-23T22:38:46.242Z,25.10
2023-04-23T22:41:55.582Z,25.00
2023-04-23T22:45:05.660Z,25.00
2023-04-23T22:48:17.303Z,25.10
2023-04-23T22:51:28.873Z,25.30
2023-04-23T22:54:40.034Z,25.40
2023-04-23T22:57:50.271Z,25.50
2023-04-23T23:01:02.587Z,25.50
2023-04-23T23:04:15.143Z,25.40
2023-04-23T23:07:24.095Z,25.30
2023-04-23T23:10:34.213Z,25.20
2023-04-23T23:13:45.987Z,25.10
2023-04-23T23:16:59.151Z,25.10
2023-04-23T23:20:08.009Z,25.20
2023-04-23T23:23:18.710Z,25.30
2023-04-23T23:26:29.632Z,25.50
2023-04-23T23:29:42.739Z,25.50
2023-04-23T23:32:53.472Z,25.50
2023-04-23T23:36:04.388Z,25.40
2023-04-23T23:39:18.041Z,25.30
2023-04-23T23:42:30.064Z,25.20
2023-04-23T23:45:41.385Z,25.10
2023-04-23T23:48:53.745Z,25.10
2023-04-23T23:52:05.081Z,25.10
2023-04-23T23:55:17.593Z,25.20
2023-04-23T23:58:31.415Z,25.30
